Time;durP1;ratioP1;P1;durP2;ratioP2;P2;SDS_P1;SDS_P2;PMS_P1;PMS_P2;Temp;Humidity;BMP_temperature;BMP_pressure;BME280_temperature;BME280_humidity;BME280_pressure;Samples;Min_cycle;Max_cycle;Signal;HPM_P1;HPM_P2
2022/07/31 00:01:35;;;;;;;2.77;1.77;;;20.30;99.90;;;;;;5072935;28;20222;-42
2022/07/31 00:04:01;;;;;;;2.60;1.87;;;20.40;99.90;;;;;;5073255;28;20325;-42
2022/07/31 00:06:26;;;;;;;7.03;2.27;;;20.30;99.90;;;;;;5073030;28;20199;-39
2022/07/31 00:08:52;;;;;;;6.33;2.23;;;20.30;99.90;;;;;;5072920;28;20179;-39
2022/07/31 00:11:17;;;;;;;3.50;1.80;;;20.30;99.90;;;;;;5073161;28;20196;-41
2022/07/31 00:13:43;;;;;;;2.70;1.83;;;20.30;99.90;;;;;;5072914;28;20183;-42
2022/07/31 00:16:09;;;;;;;3.27;2.30;;;20.20;99.90;;;;;;5072894;28;20262;-41
2022/07/31 00:19:08;;;;;;;3.07;2.10;;;20.20;99.90;;;;;;5072937;28;20176;-41
2022/07/31 00:21:34;;;;;;;2.80;2.20;;;20.20;99.90;;;;;;5073258;28;20199;-46
2022/07/31 00:24:00;;;;;;;3.47;2.03;;;20.10;99.90;;;;;;5074042;28;20203;-45
2022/07/31 00:26:25;;;;;;;3.93;2.00;;;20.10;99.90;;;;;;5073504;28;20677;-42
2022/07/31 00:28:51;;;;;;;5.17;1.90;;;20.00;99.90;;;;;;5073690;28;20598;-44
2022/07/31 00:31:17;;;;;;;4.97;2.50;;;20.00;99.90;;;;;;5074844;28;20195;-43
2022/07/31 00:33:42;;;;;;;2.83;1.80;;;19.90;99.90;;;;;;5077725;28;20171;-43
2022/07/31 00:36:08;;;;;;;3.90;2.30;;;19.90;99.90;;;;;;5077210;28;20179;-40
2022/07/31 00:38:34;;;;;;;2.53;2.03;;;19.90;99.90;;;;;;5076609;28;20195;-38
2022/07/31 00:41:01;;;;;;;3.07;1.97;;;19.80;99.90;;;;;;5076240;28;20188;-37
2022/07/31 00:43:26;;;;;;;4.70;2.20;;;19.70;99.90;;;;;;5076406;28;20207;-39
2022/07/31 00:45:52;;;;;;;3.53;1.97;;;19.70;99.90;;;;;;5076391;28;20184;-41
2022/07/31 00:48:18;;;;;;;6.03;2.30;;;19.70;99.90;;;;;;5076366;28;20176;-41
2022/07/31 00:50:44;;;;;;;3.77;2.00;;;19.60;99.90;;;;;;5076285;28;20203;-41
2022/07/31 00:53:09;;;;;;;2.67;1.80;;;19.60;99.90;;;;;;5076266;28;20172;-41
2022/07/31 00:55:35;;;;;;;3.87;2.00;;;19.50;99.90;;;;;;5076221;28;20184;-41
2022/07/31 00:58:00;;;;;;;2.63;1.70;;;19.50;99.90;;;;;;5076276;28;20639;-38
2022/07/31 01:00:26;;;;;;;3.10;2.00;;;19.50;99.90;;;;;;5075813;28;20260;-39
2022/07/31 01:02:51;;;;;;;2.47;1.97;;;19.50;99.90;;;;;;5075884;28;20172;-40
2022/07/31 01:05:17;;;;;;;1.83;1.73;;;19.40;99.90;;;;;;5076281;28;20205;-39
2022/07/31 01:07:44;;;;;;;3.83;1.83;;;19.30;99.90;;;;;;5076091;28;20567;-41
2022/07/31 01:10:15;;;;;;;4.90;2.30;;;19.30;99.90;;;;;;5075659;28;20203;-41
2022/07/31 01:12:50;;;;;;;2.77;2.27;;;19.30;99.90;;;;;;5075853;28;20191;-40
2022/07/31 01:15:16;;;;;;;3.40;2.00;;;19.30;99.90;;;;;;5075964;28;20627;-39
2022/07/31 01:17:44;;;;;;;4.03;2.43;;;19.20;99.90;;;;;;5074462;28;20179;-37
2022/07/31 01:20:10;;;;;;;5.23;2.07;;;19.20;99.90;;;;;;5075755;28;20586;-39
2022/07/31 01:23:17;;;;;;;2.10;1.90;;;19.20;99.90;;;;;;5075823;28;20175;-38
2022/07/31 01:26:01;;;;;;;2.57;2.33;;;19.10;99.90;;;;;;5033605;28;20615;-39
2022/07/31 01:28:54;;;;;;;3.10;2.80;;;19.10;99.90;;;;;;5034040;28;20161;-40
2022/07/31 01:31:32;;;;;;;6.37;3.07;;;19.10;99.90;;;;;;5067092;28;20302;-40
2022/07/31 01:34:07;;;;;;;4.77;3.17;;;19.00;99.90;;;;;;5075324;28;20164;-39
2022/07/31 01:36:38;;;;;;;7.70;3.33;;;19.00;99.90;;;;;;5075288;28;20259;-39
2022/07/31 01:39:04;;;;;;;6.90;3.73;;;19.00;99.90;;;;;;5075543;28;20167;-39
2022/07/31 01:41:36;;;;;;;6.37;3.20;;;19.00;99.90;;;;;;5074954;28;20252;-40
2022/07/31 01:44:04;;;;;;;6.20;3.50;;;19.00;99.90;;;;;;5075221;28;20202;-40
2022/07/31 01:46:31;;;;;;;4.93;3.40;;;18.90;99.90;;;;;;5074966;28;20170;-39
2022/07/31 01:48:58;;;;;;;7.70;3.80;;;19.00;99.90;;;;;;5075020;28;20168;-38
2022/07/31 01:51:25;;;;;;;4.60;2.90;;;18.90;99.90;;;;;;5073727;28;20226;-39
2022/07/31 01:53:52;;;;;;;8.73;2.93;;;19.00;99.90;;;;;;5075070;28;20194;-40
2022/07/31 01:56:19;;;;;;;9.37;3.50;;;18.90;99.90;;;;;;5075110;28;20588;-40
2022/07/31 01:58:47;;;;;;;4.40;3.23;;;18.90;99.90;;;;;;5074839;28;20705;-39
2022/07/31 02:01:14;;;;;;;4.53;3.27;;;19.00;99.90;;;;;;5074706;28;20201;-41
2022/07/31 02:03:42;;;;;;;7.60;3.47;;;19.00;99.90;;;;;;5074553;28;20565;-38
2022/07/31 02:06:09;;;;;;;4.80;3.40;;;18.90;99.90;;;;;;5074827;28;20278;-39
2022/07/31 02:08:37;;;;;;;5.13;3.00;;;18.90;99.90;;;;;;5074771;28;20182;-41
2022/07/31 02:11:03;;;;;;;4.90;3.00;;;18.90;99.90;;;;;;5074574;28;20536;-38
2022/07/31 02:13:30;;;;;;;5.40;2.70;;;18.90;99.90;;;;;;5074504;28;20647;-39
2022/07/31 02:15:57;;;;;;;4.53;2.93;;;18.90;99.90;;;;;;5074378;28;20180;-39
2022/07/31 02:18:24;;;;;;;5.03;2.60;;;18.90;99.90;;;;;;5074655;28;20177;-39
2022/07/31 02:20:50;;;;;;;4.83;2.90;;;18.90;99.90;;;;;;5074565;28;20731;-38
2022/07/31 02:23:17;;;;;;;6.13;2.87;;;18.90;99.90;;;;;;5074245;28;20187;-41
2022/07/31 02:25:45;;;;;;;5.23;2.80;;;18.90;99.90;;;;;;5074117;28;20192;-41
2022/07/31 02:28:14;;;;;;;3.10;2.50;;;18.90;99.90;;;;;;5074241;28;20174;-39
2022/07/31 02:30:42;;;;;;;4.80;2.93;;;18.90;99.90;;;;;;5073990;28;20223;-40
2022/07/31 02:33:15;;;;;;;3.67;2.73;;;18.90;99.90;;;;;;5074011;28;20627;-40
2022/07/31 02:35:44;;;;;;;5.50;3.00;;;18.90;99.90;;;;;;5074371;28;20221;-40
2022/07/31 02:38:10;;;;;;;3.13;2.20;;;18.80;99.90;;;;;;5073998;28;20168;-40
2022/07/31 02:40:38;;;;;;;4.50;2.60;;;18.90;99.90;;;;;;5073996;28;20258;-40
2022/07/31 02:43:04;;;;;;;3.70;2.50;;;18.90;99.90;;;;;;5074080;28;20182;-41
2022/07/31 02:45:30;;;;;;;4.80;2.70;;;18.90;99.90;;;;;;5073856;28;20180;-41
2022/07/31 02:47:56;;;;;;;9.13;2.60;;;18.90;99.90;;;;;;5073850;28;20184;-40
2022/07/31 02:50:22;;;;;;;6.17;2.70;;;18.90;99.90;;;;;;5074553;28;20211;-41
2022/07/31 02:52:47;;;;;;;4.63;3.03;;;18.90;99.90;;;;;;5074337;28;20282;-41
2022/07/31 02:55:13;;;;;;;3.17;2.37;;;18.90;99.90;;;;;;5073295;28;20199;-40
2022/07/31 02:57:39;;;;;;;3.13;2.00;;;18.90;99.90;;;;;;5074154;28;20184;-42
2022/07/31 03:00:21;;;;;;;4.13;1.90;;;18.90;99.90;;;;;;5072294;28;20691;-42
2022/07/31 03:02:48;;;;;;;6.30;2.10;;;18.90;99.90;;;;;;5073962;28;20167;-43
2022/07/31 03:05:14;;;;;;;2.20;1.80;;;19.00;99.90;;;;;;5073522;28;20260;-43
2022/07/31 03:07:40;;;;;;;3.07;1.90;;;19.00;99.90;;;;;;5073841;28;20183;-42
2022/07/31 03:10:05;;;;;;;2.20;1.50;;;19.00;99.90;;;;;;5073797;28;20542;-42
2022/07/31 03:12:31;;;;;;;3.40;2.03;;;19.10;99.90;;;;;;5074040;28;20258;-41
2022/07/31 03:14:57;;;;;;;3.00;1.83;;;19.10;99.90;;;;;;5073793;28;20252;-42
2022/07/31 03:17:23;;;;;;;2.73;1.93;;;19.10;99.90;;;;;;5073429;28;20172;-43
2022/07/31 03:19:50;;;;;;;2.57;1.50;;;19.20;99.90;;;;;;5073756;28;20192;-42
2022/07/31 03:22:16;;;;;;;3.60;2.10;;;19.20;99.90;;;;;;5073706;28;20652;-42
2022/07/31 03:24:42;;;;;;;2.30;1.70;;;19.20;99.90;;;;;;5073327;28;20294;-43
2022/07/31 03:27:08;;;;;;;4.30;1.67;;;19.20;99.90;;;;;;5073350;28;20194;-40
2022/07/31 03:29:39;;;;;;;2.70;1.60;;;19.30;99.90;;;;;;5073319;28;20253;-43
2022/07/31 03:32:06;;;;;;;15.70;1.60;;;19.30;99.90;;;;;;5072349;28;20303;-43
2022/07/31 03:34:31;;;;;;;3.93;1.67;;;19.30;99.90;;;;;;5073257;28;20207;-41
2022/07/31 03:36:57;;;;;;;4.77;1.60;;;19.30;99.90;;;;;;5073262;28;20550;-42
2022/07/31 03:39:24;;;;;;;4.03;1.57;;;19.40;99.90;;;;;;5073375;28;20176;-43
2022/07/31 03:41:52;;;;;;;3.23;1.87;;;19.40;99.90;;;;;;5073181;28;20187;-43
2022/07/31 03:44:18;;;;;;;4.90;1.83;;;19.30;99.90;;;;;;5073060;28;20287;-42
2022/07/31 03:46:44;;;;;;;5.23;1.97;;;19.30;99.90;;;;;;5073192;28;20159;-41
2022/07/31 03:49:10;;;;;;;2.30;1.80;;;19.30;99.90;;;;;;5074233;28;20671;-42
2022/07/31 03:51:35;;;;;;;1.97;1.63;;;19.40;99.90;;;;;;5073050;28;20290;-43
2022/07/31 03:54:01;;;;;;;2.23;1.77;;;19.30;99.90;;;;;;5073049;28;20229;-42
2022/07/31 03:56:28;;;;;;;5.83;1.50;;;19.30;99.90;;;;;;5073307;28;20560;-41
2022/07/31 03:58:53;;;;;;;3.83;1.60;;;19.30;99.90;;;;;;5073283;28;20236;-42
2022/07/31 04:01:20;;;;;;;9.10;1.80;;;19.30;99.90;;;;;;5073106;28;20199;-41
2022/07/31 04:03:46;;;;;;;3.10;1.63;;;19.30;99.90;;;;;;5071705;28;20207;-42
2022/07/31 04:06:12;;;;;;;6.07;2.03;;;19.20;99.90;;;;;;5075611;28;20180;-43
2022/07/31 04:08:38;;;;;;;2.00;1.40;;;19.20;99.90;;;;;;5077192;28;20578;-43
2022/07/31 04:11:03;;;;;;;2.90;1.73;;;19.20;99.90;;;;;;5077811;28;20191;-43
2022/07/31 04:13:29;;;;;;;2.60;1.73;;;19.20;99.90;;;;;;5077743;28;20187;-42
2022/07/31 04:15:54;;;;;;;2.43;1.40;;;19.20;99.90;;;;;;5077420;28;20187;-41
2022/07/31 04:18:20;;;;;;;4.27;1.53;;;19.20;99.90;;;;;;5077834;28;20175;-41
2022/07/31 04:20:46;;;;;;;1.57;1.43;;;19.20;99.90;;;;;;5077824;28;20203;-41
2022/07/31 04:23:11;;;;;;;3.50;1.93;;;19.20;99.90;;;;;;5077066;28;20211;-43
2022/07/31 04:25:37;;;;;;;2.60;1.60;;;19.10;99.90;;;;;;5076411;28;20192;-43
2022/07/31 04:28:05;;;;;;;4.30;1.70;;;19.10;99.90;;;;;;5076567;28;20180;-41
2022/07/31 04:30:38;;;;;;;6.70;1.87;;;19.10;99.90;;;;;;5075174;28;20196;-42
2022/07/31 04:33:13;;;;;;;3.07;1.63;;;19.10;99.90;;;;;;5075394;28;20585;-41
2022/07/31 04:36:05;;;;;;;1.97;1.70;;;19.10;99.90;;;;;;5075037;28;20294;-43
2022/07/31 04:38:52;;;;;;;3.27;1.63;;;19.10;99.90;;;;;;5075861;28;20201;-42
2022/07/31 04:41:23;;;;;;;2.03;1.60;;;19.10;99.90;;;;;;5075019;28;20210;-42
2022/07/31 04:43:51;;;;;;;2.37;1.70;;;19.10;99.90;;;;;;5074853;28;20261;-41
2022/07/31 04:46:28;;;;;;;3.90;1.53;;;19.10;99.90;;;;;;5074879;28;20184;-43
2022/07/31 04:49:05;;;;;;;2.30;1.47;;;19.10;99.90;;;;;;5071363;28;20553;-41
2022/07/31 04:52:09;;;;;;;5.67;1.70;;;19.10;99.90;;;;;;5076231;28;20211;-41
2022/07/31 04:54:46;;;;;;;5.43;1.83;;;19.10;99.90;;;;;;5074665;28;20194;-41
2022/07/31 04:57:16;;;;;;;2.57;1.53;;;19.10;99.90;;;;;;5073563;28;20187;-41
2022/07/31 04:59:44;;;;;;;6.70;1.80;;;19.10;99.90;;;;;;5073561;28;20198;-43
2022/07/31 05:02:28;;;;;;;;;;;;;;;;;;;;;
2022/07/31 05:05:00;;;;;;;1.97;1.70;;;19.10;99.90;;;;;;5075712;28;20553;-41
2022/07/31 05:07:35;;;;;;;4.27;1.70;;;19.10;99.90;;;;;;5073023;28;20282;-42
2022/07/31 05:13:08;;;;;;;2.33;1.80;;;19.20;99.90;;;;;;5076072;28;20550;-40
2022/07/31 05:15:33;;;;;;;4.37;1.60;;;19.20;99.90;;;;;;5075139;28;20176;-46
2022/07/31 05:17:59;;;;;;;2.17;1.70;;;19.20;99.90;;;;;;5074871;28;20662;-41
2022/07/31 05:20:24;;;;;;;2.40;1.40;;;19.30;99.90;;;;;;5075528;28;20649;-40
2022/07/31 05:22:50;;;;;;;4.03;1.73;;;19.20;99.90;;;;;;5075530;28;20700;-40
2022/07/31 05:25:16;;;;;;;2.23;1.60;;;19.30;99.90;;;;;;5075289;28;20602;-38
2022/07/31 05:27:41;;;;;;;1.77;1.60;;;19.20;99.90;;;;;;5076084;28;20549;-38
2022/07/31 05:30:08;;;;;;;1.83;1.37;;;19.20;99.90;;;;;;5075386;28;20626;-40
2022/07/31 05:32:34;;;;;;;2.63;1.80;;;19.30;99.90;;;;;;5075321;28;20179;-39
2022/07/31 05:34:59;;;;;;;2.13;1.50;;;19.30;99.90;;;;;;5075607;28;20179;-39
2022/07/31 05:37:25;;;;;;;3.47;1.50;;;19.30;99.90;;;;;;5075340;28;20262;-40
2022/07/31 05:39:51;;;;;;;2.97;1.53;;;19.30;99.90;;;;;;5075477;28;20567;-41
2022/07/31 05:42:16;;;;;;;3.53;1.63;;;19.30;99.90;;;;;;5075156;28;20172;-39
2022/07/31 05:44:42;;;;;;;1.70;1.40;;;19.40;99.90;;;;;;5075217;28;20298;-39
2022/07/31 05:47:07;;;;;;;1.93;1.50;;;19.40;99.90;;;;;;5075325;28;20186;-38
2022/07/31 05:49:33;;;;;;;1.57;1.40;;;19.50;99.90;;;;;;5075066;28;20176;-38
2022/07/31 05:51:58;;;;;;;3.07;1.57;;;19.50;99.90;;;;;;5075087;28;20183;-38
2022/07/31 05:54:24;;;;;;;4.13;1.50;;;19.60;99.90;;;;;;5075164;28;20304;-38
2022/07/31 05:56:49;;;;;;;1.70;1.50;;;19.60;99.90;;;;;;5075091;28;20180;-39
2022/07/31 05:59:19;;;;;;;4.60;1.77;;;19.80;99.90;;;;;;5074895;28;20256;-39
2022/07/31 06:01:45;;;;;;;1.87;1.60;;;19.80;99.90;;;;;;5075145;28;20211;-37
2022/07/31 06:04:10;;;;;;;1.93;1.37;;;19.80;99.90;;;;;;5074931;28;20218;-39
2022/07/31 06:06:36;;;;;;;2.30;1.93;;;19.80;99.90;;;;;;5074736;28;20179;-39
2022/07/31 06:09:02;;;;;;;2.07;1.50;;;19.80;99.90;;;;;;5074750;28;20179;-38
2022/07/31 06:11:27;;;;;;;3.63;1.50;;;19.80;99.90;;;;;;5074442;28;20599;-38
2022/07/31 06:13:53;;;;;;;1.50;1.30;;;19.70;99.90;;;;;;5074503;28;20180;-39
2022/07/31 06:16:18;;;;;;;2.60;1.67;;;19.70;99.90;;;;;;5074569;28;20184;-39
2022/07/31 06:18:44;;;;;;;4.33;2.13;;;19.70;99.90;;;;;;5074430;28;20191;-37
2022/07/31 06:21:11;;;;;;;1.67;1.50;;;19.70;99.90;;;;;;5074387;28;20238;-40
2022/07/31 06:23:36;;;;;;;4.17;1.83;;;19.70;99.90;;;;;;5074456;28;20215;-38
2022/07/31 06:26:02;;;;;;;2.53;1.53;;;19.70;99.90;;;;;;5074671;28;20195;-39
2022/07/31 06:28:27;;;;;;;3.07;1.70;;;19.70;99.90;;;;;;5074501;28;20172;-41
2022/07/31 06:30:53;;;;;;;1.73;1.50;;;19.60;99.90;;;;;;5074170;28;20195;-39
2022/07/31 06:33:19;;;;;;;2.50;1.90;;;19.60;99.90;;;;;;5074380;28;20175;-37
2022/07/31 06:35:44;;;;;;;1.63;1.50;;;19.60;99.90;;;;;;5074588;28;20175;-38
2022/07/31 06:38:10;;;;;;;2.00;1.60;;;19.60;99.90;;;;;;5074101;28;20713;-41
2022/07/31 06:43:57;;;;;;;2.93;1.50;;;19.60;99.90;;;;;;5074163;28;20226;-41
2022/07/31 06:46:23;;;;;;;2.13;1.40;;;19.60;99.90;;;;;;5074099;28;20160;-39
2022/07/31 06:48:48;;;;;;;2.47;1.37;;;19.70;99.90;;;;;;5074442;28;20179;-38
2022/07/31 06:51:14;;;;;;;3.20;1.63;;;19.70;99.90;;;;;;5073711;28;20199;-37
2022/07/31 06:53:40;;;;;;;4.73;1.37;;;19.70;99.90;;;;;;5073791;28;20179;-41
2022/07/31 06:56:05;;;;;;;3.77;1.27;;;19.70;99.90;;;;;;5074267;28;20188;-42
2022/07/31 06:58:32;;;;;;;2.47;1.20;;;19.70;99.90;;;;;;5073998;28;20184;-38
2022/07/31 07:00:57;;;;;;;1.63;1.30;;;19.70;99.90;;;;;;5073898;28;20199;-39
2022/07/31 07:03:23;;;;;;;2.03;1.20;;;19.70;99.90;;;;;;5074171;28;20546;-38
2022/07/31 07:05:48;;;;;;;2.57;1.23;;;19.70;99.90;;;;;;5073909;28;20515;-39
2022/07/31 07:08:14;;;;;;;3.23;1.67;;;19.70;99.90;;;;;;5073566;28;20263;-40
2022/07/31 07:10:39;;;;;;;2.17;1.20;;;19.70;99.90;;;;;;5073812;28;20195;-39
2022/07/31 07:13:05;;;;;;;3.63;1.40;;;19.70;99.90;;;;;;5073843;28;20184;-38
2022/07/31 07:15:30;;;;;;;2.23;1.57;;;19.80;99.90;;;;;;5073629;28;20262;-38
2022/07/31 07:17:56;;;;;;;2.60;1.57;;;19.90;99.90;;;;;;5073774;28;20206;-37
2022/07/31 07:20:21;;;;;;;4.47;1.30;;;19.90;99.90;;;;;;5073543;28;20210;-41
2022/07/31 07:22:47;;;;;;;2.10;1.60;;;20.00;99.90;;;;;;5073426;28;20616;-39
2022/07/31 07:25:13;;;;;;;3.50;1.40;;;20.00;99.90;;;;;;5073760;28;20290;-41
2022/07/31 07:27:38;;;;;;;2.07;1.20;;;20.10;99.90;;;;;;5073694;28;20202;-40
2022/07/31 07:30:04;;;;;;;2.80;1.47;;;20.20;99.90;;;;;;5073261;28;20195;-39
2022/07/31 07:32:30;;;;;;;3.30;1.57;;;20.40;99.90;;;;;;5073570;28;20207;-40
2022/07/31 07:34:55;;;;;;;4.00;1.40;;;20.40;99.90;;;;;;5073523;28;20229;-40
2022/07/31 07:37:21;;;;;;;2.60;1.40;;;20.60;99.90;;;;;;5073259;28;20179;-39
2022/07/31 07:39:47;;;;;;;1.80;1.37;;;20.60;99.90;;;;;;5074407;28;20272;-39
2022/07/31 07:42:12;;;;;;;3.77;1.67;;;20.70;99.90;;;;;;5080152;28;20536;-40
2022/07/31 07:44:38;;;;;;;3.43;1.33;;;20.80;99.90;;;;;;5080180;28;20202;-40
2022/07/31 07:47:04;;;;;;;2.13;1.37;;;20.90;99.90;;;;;;5080305;28;20764;-39
2022/07/31 07:49:29;;;;;;;2.53;1.53;;;21.00;99.90;;;;;;5080122;28;20258;-39
2022/07/31 07:51:55;;;;;;;3.20;1.53;;;21.10;99.90;;;;;;5079867;28;20205;-40
2022/07/31 07:54:20;;;;;;;2.83;1.43;;;21.20;99.90;;;;;;5079915;28;20183;-41
2022/07/31 07:56:46;;;;;;;2.70;1.43;;;21.20;99.90;;;;;;5079919;28;20233;-39
2022/07/31 07:59:11;;;;;;;4.17;1.60;;;21.30;99.90;;;;;;5080080;28;20178;-38
2022/07/31 08:01:37;;;;;;;3.27;1.57;;;21.30;99.90;;;;;;5079956;28;20199;-40
2022/07/31 08:04:03;;;;;;;2.30;1.60;;;21.40;99.90;;;;;;5079627;28;20686;-39
2022/07/31 08:06:29;;;;;;;2.23;1.57;;;21.50;99.90;;;;;;5080083;28;20595;-40
2022/07/31 08:08:54;;;;;;;4.87;1.50;;;21.60;99.90;;;;;;5079806;28;20183;-40
2022/07/31 08:11:20;;;;;;;2.50;1.63;;;21.70;99.90;;;;;;5079714;28;20218;-39
2022/07/31 08:13:46;;;;;;;2.33;1.63;;;21.70;99.90;;;;;;5079637;28;20236;-42
2022/07/31 08:16:11;;;;;;;8.20;1.80;;;21.70;99.90;;;;;;5080384;28;20546;-39
2022/07/31 08:18:37;;;;;;;5.97;2.00;;;21.70;99.90;;;;;;5079623;28;20175;-39
2022/07/31 08:21:03;;;;;;;3.67;1.50;;;21.70;99.90;;;;;;5079502;28;20199;-39
2022/07/31 08:23:28;;;;;;;2.10;1.70;;;21.80;99.90;;;;;;5079720;28;20218;-40
2022/07/31 08:25:54;;;;;;;3.03;1.57;;;21.80;99.90;;;;;;5079376;28;20191;-41
2022/07/31 08:28:19;;;;;;;2.83;1.60;;;21.80;99.90;;;;;;5079504;28;20230;-39
2022/07/31 08:30:45;;;;;;;2.27;1.70;;;21.80;99.90;;;;;;5079472;28;20202;-40
2022/07/31 08:33:10;;;;;;;4.70;1.80;;;21.80;99.90;;;;;;5079796;28;20239;-39
2022/07/31 08:35:36;;;;;;;2.23;1.47;;;21.90;99.90;;;;;;5079535;28;20647;-41
2022/07/31 08:38:03;;;;;;;2.47;1.30;;;21.90;99.90;;;;;;5079543;28;20635;-42
2022/07/31 08:40:31;;;;;;;2.07;1.40;;;22.00;99.90;;;;;;5079590;28;20188;-39
2022/07/31 08:42:57;;;;;;;2.70;1.50;;;22.00;99.90;;;;;;5079845;28;20539;-40
2022/07/31 08:45:22;;;;;;;3.87;1.60;;;22.10;99.90;;;;;;5079553;28;20191;-41
2022/07/31 08:47:49;;;;;;;3.13;1.50;;;22.10;99.90;;;;;;5079561;28;20176;-40
2022/07/31 08:50:15;;;;;;;1.93;1.20;;;22.20;99.90;;;;;;5079720;28;20187;-40
2022/07/31 08:52:44;;;;;;;1.30;1.20;;;22.30;99.90;;;;;;5075882;28;20201;-40
2022/07/31 08:55:11;;;;;;;5.07;1.50;;;22.40;99.90;;;;;;5074915;28;20185;-39
2022/07/31 08:57:37;;;;;;;1.40;1.20;;;22.60;99.90;;;;;;5076040;28;20171;-39
2022/07/31 09:00:08;;;;;;;1.80;1.47;;;22.80;99.90;;;;;;5076163;28;20210;-40
2022/07/31 09:02:34;;;;;;;2.57;1.57;;;22.80;99.90;;;;;;5075909;28;20175;-38
2022/07/31 09:05:00;;;;;;;2.10;1.23;;;22.80;99.90;;;;;;5076125;28;20208;-37
2022/07/31 09:07:25;;;;;;;1.73;1.07;;;22.90;99.90;;;;;;5076137;28;20183;-38
2022/07/31 09:09:51;;;;;;;5.33;1.50;;;23.00;99.90;;;;;;5076497;28;20227;-38
2022/07/31 09:12:29;;;;;;;3.80;1.23;;;23.00;99.90;;;;;;5076048;28;20693;-37
2022/07/31 09:14:55;;;;;;;2.33;1.30;;;23.00;99.90;;;;;;5076345;28;20163;-40
2022/07/31 09:17:31;;;;;;;2.27;1.00;;;23.00;99.90;;;;;;5075948;28;20221;-39
2022/07/31 09:19:57;;;;;;;1.60;1.10;;;23.10;99.90;;;;;;5075587;28;20199;-39
2022/07/31 09:22:23;;;;;;;2.30;1.27;;;23.10;99.90;;;;;;5075712;28;20179;-39
2022/07/31 09:24:49;;;;;;;2.23;1.13;;;23.20;99.90;;;;;;5075377;28;20251;-39
2022/07/31 09:27:16;;;;;;;2.80;1.30;;;23.40;99.90;;;;;;5075390;28;20273;-40
2022/07/31 09:29:44;;;;;;;1.47;1.37;;;23.40;99.90;;;;;;5075432;28;20172;-39
2022/07/31 09:35:38;;;;;;;1.23;1.13;;;23.60;99.90;;;;;;5081336;22;20280;-40
2022/07/31 09:38:04;;;;;;;1.53;1.30;;;23.80;99.90;;;;;;5075265;28;20203;-40
2022/07/31 09:40:34;;;;;;;2.77;1.30;;;24.00;99.90;;;;;;5075782;28;20317;-41
2022/07/31 09:42:59;;;;;;;2.80;1.20;;;24.10;99.90;;;;;;5075238;28;20178;-39
2022/07/31 09:45:25;;;;;;;4.60;1.47;;;24.00;99.90;;;;;;5075157;28;20199;-39
2022/07/31 09:48:07;;;;;;;2.90;1.30;;;24.10;99.90;;;;;;5075143;28;20168;-38
2022/07/31 09:50:33;;;;;;;1.47;1.10;;;24.10;99.90;;;;;;5074926;28;20735;-39
2022/07/31 09:52:59;;;;;;;2.13;1.30;;;24.20;99.90;;;;;;5075328;28;20179;-39
2022/07/31 09:55:25;;;;;;;1.67;1.30;;;24.20;99.90;;;;;;5075026;28;20179;-38
2022/07/31 09:57:53;;;;;;;2.53;1.30;;;24.30;99.90;;;;;;5074889;28;20176;-38
2022/07/31 10:00:20;;;;;;;1.87;1.10;;;24.40;99.90;;;;;;5075119;28;20206;-40
2022/07/31 10:02:47;;;;;;;2.23;1.00;;;24.40;99.90;;;;;;5074496;28;20175;-40
2022/07/31 10:05:14;;;;;;;2.50;1.03;;;24.60;99.90;;;;;;5074871;28;20199;-39
2022/07/31 10:07:41;;;;;;;1.30;1.20;;;24.80;99.90;;;;;;5075165;28;20270;-39
2022/07/31 10:10:07;;;;;;;1.90;1.27;;;24.90;99.90;;;;;;5074829;28;20196;-40
2022/07/31 10:12:38;;;;;;;1.20;1.10;;;25.00;99.90;;;;;;5074567;28;20229;-40
2022/07/31 10:15:08;;;;;;;1.87;1.40;;;25.20;99.90;;;;;;5074863;28;20202;-39
2022/07/31 10:17:39;;;;;;;1.00;1.00;;;25.20;99.90;;;;;;5074667;28;20187;-39
2022/07/31 10:20:07;;;;;;;2.33;1.20;;;25.30;99.90;;;;;;5074676;28;20210;-40
2022/07/31 10:22:45;;;;;;;2.07;1.37;;;25.40;99.90;;;;;;5074733;28;20583;-41
2022/07/31 10:25:25;;;;;;;2.83;1.20;;;25.50;99.90;;;;;;5073041;28;20199;-39
2022/07/31 10:27:52;;;;;;;5.13;1.23;;;25.70;99.90;;;;;;5074261;28;20183;-40
2022/07/31 10:30:20;;;;;;;1.67;1.13;;;25.70;99.90;;;;;;5074200;28;20656;-40
2022/07/31 10:32:45;;;;;;;1.40;1.30;;;25.80;99.90;;;;;;5074108;28;20225;-41
2022/07/31 10:35:13;;;;;;;2.60;1.00;;;25.90;99.90;;;;;;5074345;28;20183;-39
2022/07/31 10:37:44;;;;;;;2.20;1.30;;;26.00;99.90;;;;;;5074028;28;20599;-38
2022/07/31 10:40:34;;;;;;;1.63;1.30;;;26.20;99.90;;;;;;5074251;28;20261;-39
2022/07/31 10:43:08;;;;;;;2.77;1.47;;;26.30;99.90;;;;;;5074319;28;20168;-42
2022/07/31 10:45:48;;;;;;;2.37;1.50;;;26.40;99.90;;;;;;5073922;28;20191;-41
2022/07/31 10:48:13;;;;;;;1.37;1.27;;;26.50;99.90;;;;;;5074182;28;20168;-41
2022/07/31 10:50:39;;;;;;;1.37;1.27;;;26.50;99.90;;;;;;5073828;28;20549;-40
2022/07/31 10:53:09;;;;;;;2.30;1.60;;;26.50;99.90;;;;;;5074055;28;20176;-41
2022/07/31 10:55:35;;;;;;;3.20;1.70;;;26.60;99.90;;;;;;5073985;28;20184;-40
2022/07/31 10:58:15;;;;;;;1.40;1.30;;;26.60;99.90;;;;;;5074265;28;20182;-39
2022/07/31 11:00:42;;;;;;;2.27;1.40;;;26.60;99.90;;;;;;5073623;28;20703;-40
2022/07/31 11:03:15;;;;;;;2.37;1.20;;;26.60;99.90;;;;;;5073909;28;20180;-41
2022/07/31 11:05:55;;;;;;;1.83;1.67;;;26.80;99.90;;;;;;5073629;28;20234;-43
2022/07/31 11:08:21;;;;;;;3.53;1.40;;;26.90;99.90;;;;;;5074185;28;20240;-38
2022/07/31 11:10:54;;;;;;;2.97;1.67;;;26.90;99.90;;;;;;5073529;28;20219;-40
2022/07/31 11:13:22;;;;;;;1.50;1.30;;;26.90;99.90;;;;;;5073865;28;20160;-40
2022/07/31 11:15:51;;;;;;;3.60;1.50;;;27.00;99.90;;;;;;5072878;28;20695;-41
2022/07/31 11:18:19;;;;;;;3.23;1.43;;;27.00;99.90;;;;;;5073472;28;20651;-41
2022/07/31 11:20:45;;;;;;;1.97;1.43;;;27.20;99.90;;;;;;5073385;28;20759;-40
2022/07/31 11:23:15;;;;;;;2.40;1.53;;;27.20;99.90;;;;;;5073863;28;20267;-41
2022/07/31 11:25:43;;;;;;;3.37;1.57;;;27.30;99.90;;;;;;5073785;28;20233;-42
2022/07/31 11:28:14;;;;;;;2.27;1.40;;;27.50;99.90;;;;;;5073433;28;20263;-45
2022/07/31 11:30:58;;;;;;;2.73;1.57;;;27.40;99.90;;;;;;5073552;28;20275;-43
2022/07/31 11:33:33;;;;;;;3.33;1.70;;;27.50;99.90;;;;;;5073422;28;20175;-43
2022/07/31 11:36:25;;;;;;;3.50;1.60;;;27.60;99.90;;;;;;5071975;28;20167;-43
2022/07/31 11:38:54;;;;;;;1.50;1.40;;;27.70;99.90;;;;;;5073399;28;20163;-44
2022/07/31 11:41:25;;;;;;;2.53;2.00;;;27.60;99.90;;;;;;5073193;28;20199;-43
2022/07/31 11:43:52;;;;;;;1.50;1.40;;;27.60;99.90;;;;;;5073296;28;20598;-45
2022/07/31 11:46:30;;;;;;;2.33;1.60;;;27.70;99.90;;;;;;5073194;28;20505;-43
2022/07/31 11:48:57;;;;;;;2.83;1.50;;;27.70;99.90;;;;;;5073519;28;20232;-43
2022/07/31 11:51:24;;;;;;;4.30;1.50;;;27.70;99.90;;;;;;5073177;28;20736;-43
2022/07/31 11:53:50;;;;;;;3.17;1.83;;;27.80;99.90;;;;;;5073179;28;20254;-45
2022/07/31 11:56:17;;;;;;;4.87;1.50;;;27.90;99.90;;;;;;5073395;28;20230;-44
2022/07/31 11:58:48;;;;;;;2.63;1.60;;;27.80;99.90;;;;;;5073333;28;20191;-44
2022/07/31 12:01:14;;;;;;;4.67;1.70;;;27.70;99.90;;;;;;5073120;28;20195;-44
2022/07/31 12:03:40;;;;;;;3.87;1.70;;;27.70;99.90;;;;;;5073016;28;20176;-43
2022/07/31 12:06:07;;;;;;;2.47;1.50;;;27.80;99.90;;;;;;5073287;28;20262;-43
2022/07/31 12:08:34;;;;;;;3.20;1.80;;;27.80;99.90;;;;;;5073262;28;20179;-43
2022/07/31 12:11:01;;;;;;;3.57;1.97;;;27.80;99.90;;;;;;5073069;28;20216;-43
2022/07/31 12:13:28;;;;;;;2.67;1.63;;;27.90;99.90;;;;;;5073120;28;20706;-43
2022/07/31 12:16:04;;;;;;;4.40;1.80;;;27.90;99.90;;;;;;5073181;28;20229;-44
2022/07/31 12:18:49;;;;;;;2.10;1.70;;;27.80;99.90;;;;;;5073423;28;20238;-42
2022/07/31 12:21:17;;;;;;;2.35;1.75;;;27.80;99.90;;;;;;5073142;28;20246;-43
2022/07/31 12:23:47;;;;;;;1.95;1.60;;;27.80;99.90;;;;;;5072778;28;20214;-43
2022/07/31 12:26:29;;;;;;;3.75;1.55;;;27.70;99.90;;;;;;5073930;28;20191;-43
2022/07/31 12:29:00;;;;;;;1.70;1.60;;;27.80;99.90;;;;;;5076885;28;20217;-43
2022/07/31 12:31:26;;;;;;;2.60;1.70;;;28.00;99.90;;;;;;5076396;28;20195;-44
2022/07/31 12:33:52;;;;;;;2.17;2.00;;;28.10;99.90;;;;;;5076573;28;20184;-44
2022/07/31 12:36:18;;;;;;;1.70;1.60;;;28.10;99.90;;;;;;5076461;28;20206;-42
2022/07/31 12:38:44;;;;;;;2.25;1.50;;;28.10;99.90;;;;;;5076633;28;20191;-42
2022/07/31 12:41:09;;;;;;;3.53;1.73;;;28.00;99.90;;;;;;5076342;28;20245;-42
2022/07/31 12:43:35;;;;;;;2.10;1.90;;;28.00;99.90;;;;;;5076462;28;20655;-42
2022/07/31 12:46:04;;;;;;;6.30;2.25;;;28.00;99.90;;;;;;5076271;28;20644;-40
2022/07/31 12:48:33;;;;;;;3.35;1.95;;;28.00;99.90;;;;;;5076372;28;20180;-43
2022/07/31 12:50:59;;;;;;;2.00;1.90;;;28.00;99.90;;;;;;5076103;28;20191;-42
2022/07/31 12:53:28;;;;;;;2.20;1.90;;;28.00;99.90;;;;;;5076367;28;20558;-42
2022/07/31 12:55:53;;;;;;;2.85;1.83;;;28.10;99.90;;;;;;5076042;28;20650;-42
2022/07/31 12:58:19;;;;;;;5.07;1.90;;;28.30;99.90;;;;;;5076049;28;20203;-42
2022/07/31 13:00:45;;;;;;;1.77;1.63;;;28.40;99.90;;;;;;5076134;28;20690;-42
2022/07/31 13:03:10;;;;;;;2.40;1.98;;;28.50;99.90;;;;;;5075928;28;20179;-42